DNAA

Nnamdi Azikiwe International Airport

Abuja, Nigeria
METAR DNAA 181400Z 26006KT 230V290 9999 BKN008 FEW019CB 26/21 Q1014 NOSIG RMK CB S TO W
Observed Flight Rules
Aug-18 @ 14:00 UTC (51 minutes ago) Instrument Flight Rules
Wind Visibility Clouds
260° at 6 knots 10,000+ meters
  • Broken at 800' AGL
  • Few at 1,900' AGL
Temperatures Readings
Current 26°C / 79°F
Dewpoint 21°C / 70°F
Humidity 74%
Altimeter 29.94" Hg
Pressure 1014 hPa
Elevation 344
METAR DNAA 181400Z 26006KT 230V290 9999 BKN008 FEW019CB 26/21 Q1014 NOSIG RMK CB S TO W
Observed Flight Rules
Aug-18 @ 14:00 UTC
(51 minutes ago)
IFR
Wind Visibility
260° at 6 knots 10,000+ meters
Clouds
  • Broken at 800' AGL
  • Few at 1,900' AGL
Temperature Dewpoint
26°C / 79°F 21°C / 70°F
Humidity Altimeter Pressure
74% 29.94" Hg 1014 hPa